sensor_id;sensor_type;location;lat;lon;timestamp;P1;durP1;ratioP1;P2;durP2;ratioP2
42972;SDS011;28610;51.214;6.962;2022-08-06T00:01:46;4.70;;;2.20;;
42972;SDS011;28610;51.214;6.962;2022-08-06T00:04:32;6.93;;;2.40;;
42972;SDS011;28610;51.214;6.962;2022-08-06T00:07:17;4.03;;;2.20;;
42972;SDS011;28610;51.214;6.962;2022-08-06T00:10:03;2.57;;;2.17;;
42972;SDS011;28610;51.214;6.962;2022-08-06T00:12:49;7.37;;;2.33;;
42972;SDS011;28610;51.214;6.962;2022-08-06T00:15:35;3.97;;;2.17;;
42972;SDS011;28610;51.214;6.962;2022-08-06T00:18:22;3.30;;;2.20;;
42972;SDS011;28610;51.214;6.962;2022-08-06T00:21:07;5.77;;;2.23;;
42972;SDS011;28610;51.214;6.962;2022-08-06T00:23:52;5.70;;;2.40;;
42972;SDS011;28610;51.214;6.962;2022-08-06T00:26:38;5.13;;;2.10;;
42972;SDS011;28610;51.214;6.962;2022-08-06T00:29:23;5.53;;;2.23;;
42972;SDS011;28610;51.214;6.962;2022-08-06T00:32:08;6.93;;;2.73;;
42972;SDS011;28610;51.214;6.962;2022-08-06T00:34:55;6.13;;;2.80;;
42972;SDS011;28610;51.214;6.962;2022-08-06T00:37:41;4.47;;;2.20;;
42972;SDS011;28610;51.214;6.962;2022-08-06T00:40:26;5.77;;;2.37;;
42972;SDS011;28610;51.214;6.962;2022-08-06T00:43:13;5.60;;;2.33;;
42972;SDS011;28610;51.214;6.962;2022-08-06T00:45:58;4.23;;;2.40;;
42972;SDS011;28610;51.214;6.962;2022-08-06T00:48:44;5.00;;;2.40;;
42972;SDS011;28610;51.214;6.962;2022-08-06T00:51:31;8.73;;;2.60;;
42972;SDS011;28610;51.214;6.962;2022-08-06T00:54:18;6.33;;;2.30;;
42972;SDS011;28610;51.214;6.962;2022-08-06T00:57:04;5.47;;;2.40;;
42972;SDS011;28610;51.214;6.962;2022-08-06T00:59:50;4.07;;;2.30;;
42972;SDS011;28610;51.214;6.962;2022-08-06T01:02:35;4.87;;;2.40;;
42972;SDS011;28610;51.214;6.962;2022-08-06T01:05:20;5.83;;;2.40;;
42972;SDS011;28610;51.214;6.962;2022-08-06T01:08:07;6.27;;;2.90;;
42972;SDS011;28610;51.214;6.962;2022-08-06T01:10:53;5.77;;;2.53;;
42972;SDS011;28610;51.214;6.962;2022-08-06T01:13:39;7.90;;;2.70;;
42972;SDS011;28610;51.214;6.962;2022-08-06T01:16:25;4.03;;;2.50;;
42972;SDS011;28610;51.214;6.962;2022-08-06T01:19:22;4.70;;;2.53;;
42972;SDS011;28610;51.214;6.962;2022-08-06T01:22:27;4.93;;;2.80;;
42972;SDS011;28610;51.214;6.962;2022-08-06T01:25:32;5.97;;;2.70;;
42972;SDS011;28610;51.214;6.962;2022-08-06T01:28:33;6.17;;;2.50;;
42972;SDS011;28610;51.214;6.962;2022-08-06T01:31:25;5.60;;;2.43;;
42972;SDS011;28610;51.214;6.962;2022-08-06T01:34:17;6.20;;;2.73;;
42972;SDS011;28610;51.214;6.962;2022-08-06T01:37:10;10.53;;;2.87;;
42972;SDS011;28610;51.214;6.962;2022-08-06T01:40:00;5.63;;;2.67;;
42972;SDS011;28610;51.214;6.962;2022-08-06T01:42:49;5.27;;;2.67;;
42972;SDS011;28610;51.214;6.962;2022-08-06T01:45:38;6.50;;;2.93;;
42972;SDS011;28610;51.214;6.962;2022-08-06T01:48:24;7.60;;;2.70;;
42972;SDS011;28610;51.214;6.962;2022-08-06T01:51:10;6.80;;;2.70;;
42972;SDS011;28610;51.214;6.962;2022-08-06T01:53:56;5.90;;;2.70;;
42972;SDS011;28610;51.214;6.962;2022-08-06T01:56:42;6.43;;;2.70;;
42972;SDS011;28610;51.214;6.962;2022-08-06T01:59:33;7.03;;;2.70;;
42972;SDS011;28610;51.214;6.962;2022-08-06T02:02:24;5.70;;;2.90;;
42972;SDS011;28610;51.214;6.962;2022-08-06T02:05:11;6.80;;;2.70;;
42972;SDS011;28610;51.214;6.962;2022-08-06T02:07:59;8.83;;;3.00;;
42972;SDS011;28610;51.214;6.962;2022-08-06T02:10:46;5.40;;;3.00;;
42972;SDS011;28610;51.214;6.962;2022-08-06T02:13:32;6.47;;;3.00;;
42972;SDS011;28610;51.214;6.962;2022-08-06T02:16:19;7.30;;;3.00;;
42972;SDS011;28610;51.214;6.962;2022-08-06T02:19:08;5.10;;;2.90;;
42972;SDS011;28610;51.214;6.962;2022-08-06T02:21:57;5.40;;;2.70;;
42972;SDS011;28610;51.214;6.962;2022-08-06T02:24:45;6.77;;;2.90;;
42972;SDS011;28610;51.214;6.962;2022-08-06T02:27:31;11.03;;;4.10;;
42972;SDS011;28610;51.214;6.962;2022-08-06T02:30:18;4.93;;;3.00;;
42972;SDS011;28610;51.214;6.962;2022-08-06T02:33:03;6.13;;;2.83;;
42972;SDS011;28610;51.214;6.962;2022-08-06T02:35:52;9.10;;;3.17;;
42972;SDS011;28610;51.214;6.962;2022-08-06T02:38:46;6.63;;;3.17;;
42972;SDS011;28610;51.214;6.962;2022-08-06T02:41:38;8.60;;;3.07;;
42972;SDS011;28610;51.214;6.962;2022-08-06T02:44:28;5.93;;;2.90;;
42972;SDS011;28610;51.214;6.962;2022-08-06T02:47:21;9.27;;;3.10;;
42972;SDS011;28610;51.214;6.962;2022-08-06T02:50:09;8.10;;;3.57;;
42972;SDS011;28610;51.214;6.962;2022-08-06T02:52:59;7.83;;;3.33;;
42972;SDS011;28610;51.214;6.962;2022-08-06T02:55:48;8.43;;;3.10;;
42972;SDS011;28610;51.214;6.962;2022-08-06T02:58:37;5.37;;;3.43;;
42972;SDS011;28610;51.214;6.962;2022-08-06T03:01:27;5.00;;;3.00;;
42972;SDS011;28610;51.214;6.962;2022-08-06T03:04:14;8.93;;;3.10;;
42972;SDS011;28610;51.214;6.962;2022-08-06T03:07:02;6.40;;;3.03;;
42972;SDS011;28610;51.214;6.962;2022-08-06T03:09:53;6.27;;;3.10;;
42972;SDS011;28610;51.214;6.962;2022-08-06T03:12:40;8.60;;;3.30;;
42972;SDS011;28610;51.214;6.962;2022-08-06T03:15:27;8.40;;;3.13;;
42972;SDS011;28610;51.214;6.962;2022-08-06T03:18:15;10.23;;;3.30;;
42972;SDS011;28610;51.214;6.962;2022-08-06T03:21:02;6.00;;;3.33;;
42972;SDS011;28610;51.214;6.962;2022-08-06T03:23:49;7.13;;;3.27;;
42972;SDS011;28610;51.214;6.962;2022-08-06T03:26:37;6.47;;;3.40;;
42972;SDS011;28610;51.214;6.962;2022-08-06T03:29:24;9.03;;;3.20;;
42972;SDS011;28610;51.214;6.962;2022-08-06T03:32:11;6.50;;;3.37;;
42972;SDS011;28610;51.214;6.962;2022-08-06T03:34:57;6.20;;;3.40;;
42972;SDS011;28610;51.214;6.962;2022-08-06T03:37:43;6.23;;;3.40;;
42972;SDS011;28610;51.214;6.962;2022-08-06T03:40:31;8.70;;;3.57;;
42972;SDS011;28610;51.214;6.962;2022-08-06T03:43:18;7.13;;;3.70;;
42972;SDS011;28610;51.214;6.962;2022-08-06T03:46:05;9.00;;;3.27;;
42972;SDS011;28610;51.214;6.962;2022-08-06T03:48:51;7.00;;;3.33;;
42972;SDS011;28610;51.214;6.962;2022-08-06T03:51:38;5.43;;;3.23;;
42972;SDS011;28610;51.214;6.962;2022-08-06T03:54:26;9.40;;;3.40;;
42972;SDS011;28610;51.214;6.962;2022-08-06T03:57:14;5.57;;;3.30;;
42972;SDS011;28610;51.214;6.962;2022-08-06T04:00:06;10.53;;;3.40;;
42972;SDS011;28610;51.214;6.962;2022-08-06T04:02:54;10.80;;;3.70;;
42972;SDS011;28610;51.214;6.962;2022-08-06T04:05:41;7.73;;;3.40;;
42972;SDS011;28610;51.214;6.962;2022-08-06T04:08:26;6.33;;;3.60;;
42972;SDS011;28610;51.214;6.962;2022-08-06T04:11:13;9.00;;;4.20;;
42972;SDS011;28610;51.214;6.962;2022-08-06T04:14:00;7.73;;;3.93;;
42972;SDS011;28610;51.214;6.962;2022-08-06T04:16:48;8.90;;;4.00;;
42972;SDS011;28610;51.214;6.962;2022-08-06T04:19:34;8.40;;;4.40;;
42972;SDS011;28610;51.214;6.962;2022-08-06T04:22:20;8.87;;;4.00;;
42972;SDS011;28610;51.214;6.962;2022-08-06T04:25:06;15.03;;;4.60;;
42972;SDS011;28610;51.214;6.962;2022-08-06T04:27:54;9.87;;;4.57;;
42972;SDS011;28610;51.214;6.962;2022-08-06T04:30:40;9.10;;;4.83;;
42972;SDS011;28610;51.214;6.962;2022-08-06T04:33:29;13.43;;;4.90;;
42972;SDS011;28610;51.214;6.962;2022-08-06T04:36:16;9.83;;;4.97;;
42972;SDS011;28610;51.214;6.962;2022-08-06T04:39:04;10.83;;;4.53;;
42972;SDS011;28610;51.214;6.962;2022-08-06T04:41:50;13.77;;;4.93;;
42972;SDS011;28610;51.214;6.962;2022-08-06T04:44:35;9.43;;;4.73;;
42972;SDS011;28610;51.214;6.962;2022-08-06T04:47:21;10.40;;;4.63;;
42972;SDS011;28610;51.214;6.962;2022-08-06T04:50:10;11.20;;;4.83;;
42972;SDS011;28610;51.214;6.962;2022-08-06T04:53:03;10.03;;;4.43;;
42972;SDS011;28610;51.214;6.962;2022-08-06T04:55:50;8.50;;;4.67;;
42972;SDS011;28610;51.214;6.962;2022-08-06T04:58:36;8.50;;;4.00;;
42972;SDS011;28610;51.214;6.962;2022-08-06T05:01:21;7.17;;;3.40;;
42972;SDS011;28610;51.214;6.962;2022-08-06T05:04:07;12.67;;;3.80;;
42972;SDS011;28610;51.214;6.962;2022-08-06T05:06:54;7.97;;;3.20;;
42972;SDS011;28610;51.214;6.962;2022-08-06T05:09:44;5.97;;;2.90;;
42972;SDS011;28610;51.214;6.962;2022-08-06T05:12:30;7.03;;;2.90;;
42972;SDS011;28610;51.214;6.962;2022-08-06T05:15:22;6.05;;;3.17;;
42972;SDS011;28610;51.214;6.962;2022-08-06T05:18:13;6.78;;;2.92;;
42972;SDS011;28610;51.214;6.962;2022-08-06T05:21:02;8.07;;;2.42;;
42972;SDS011;28610;51.214;6.962;2022-08-06T05:23:50;8.60;;;2.75;;
42972;SDS011;28610;51.214;6.962;2022-08-06T05:26:38;6.18;;;2.60;;
42972;SDS011;28610;51.214;6.962;2022-08-06T05:29:23;5.10;;;2.53;;
42972;SDS011;28610;51.214;6.962;2022-08-06T05:32:09;7.38;;;2.55;;
42972;SDS011;28610;51.214;6.962;2022-08-06T05:34:54;9.50;;;2.88;;
42972;SDS011;28610;51.214;6.962;2022-08-06T05:37:40;6.43;;;2.75;;
42972;SDS011;28610;51.214;6.962;2022-08-06T05:40:27;7.80;;;3.03;;
42972;SDS011;28610;51.214;6.962;2022-08-06T05:43:17;9.23;;;3.05;;
42972;SDS011;28610;51.214;6.962;2022-08-06T05:46:04;7.18;;;2.90;;
42972;SDS011;28610;51.214;6.962;2022-08-06T05:48:54;6.60;;;2.80;;
42972;SDS011;28610;51.214;6.962;2022-08-06T05:51:51;5.97;;;2.50;;
42972;SDS011;28610;51.214;6.962;2022-08-06T05:54:44;6.40;;;2.60;;
42972;SDS011;28610;51.214;6.962;2022-08-06T05:57:37;9.77;;;2.80;;
42972;SDS011;28610;51.214;6.962;2022-08-06T06:00:25;7.03;;;2.47;;
42972;SDS011;28610;51.214;6.962;2022-08-06T06:03:14;5.57;;;2.20;;
42972;SDS011;28610;51.214;6.962;2022-08-06T06:06:01;7.13;;;2.45;;
42972;SDS011;28610;51.214;6.962;2022-08-06T06:08:47;5.43;;;2.20;;
42972;SDS011;28610;51.214;6.962;2022-08-06T06:11:33;7.97;;;2.55;;
42972;SDS011;28610;51.214;6.962;2022-08-06T06:14:27;9.00;;;2.65;;
42972;SDS011;28610;51.214;6.962;2022-08-06T06:17:33;5.18;;;2.30;;
42972;SDS011;28610;51.214;6.962;2022-08-06T06:20:35;6.50;;;2.60;;
42972;SDS011;28610;51.214;6.962;2022-08-06T06:23:26;9.10;;;2.95;;
42972;SDS011;28610;51.214;6.962;2022-08-06T06:26:15;7.32;;;2.70;;
42972;SDS011;28610;51.214;6.962;2022-08-06T06:29:14;7.43;;;2.70;;
42972;SDS011;28610;51.214;6.962;2022-08-06T06:32:06;8.50;;;2.90;;
42972;SDS011;28610;51.214;6.962;2022-08-06T06:34:59;7.55;;;2.47;;
42972;SDS011;28610;51.214;6.962;2022-08-06T06:37:53;7.03;;;2.55;;
42972;SDS011;28610;51.214;6.962;2022-08-06T06:40:51;5.88;;;2.65;;
42972;SDS011;28610;51.214;6.962;2022-08-06T06:43:43;8.93;;;2.20;;
42972;SDS011;28610;51.214;6.962;2022-08-06T06:46:33;10.00;;;2.20;;
42972;SDS011;28610;51.214;6.962;2022-08-06T06:49:32;4.50;;;2.15;;
42972;SDS011;28610;51.214;6.962;2022-08-06T06:52:22;8.23;;;2.30;;
42972;SDS011;28610;51.214;6.962;2022-08-06T06:55:12;9.50;;;2.45;;
42972;SDS011;28610;51.214;6.962;2022-08-06T06:58:02;8.77;;;2.20;;
42972;SDS011;28610;51.214;6.962;2022-08-06T07:00:52;6.40;;;1.95;;
42972;SDS011;28610;51.214;6.962;2022-08-06T07:03:39;5.90;;;1.90;;
42972;SDS011;28610;51.214;6.962;2022-08-06T07:06:28;8.18;;;1.92;;
42972;SDS011;28610;51.214;6.962;2022-08-06T07:09:16;5.10;;;1.70;;
42972;SDS011;28610;51.214;6.962;2022-08-06T07:12:04;8.05;;;1.80;;
42972;SDS011;28610;51.214;6.962;2022-08-06T07:14:53;5.63;;;1.75;;
42972;SDS011;28610;51.214;6.962;2022-08-06T07:17:39;7.07;;;1.80;;
42972;SDS011;28610;51.214;6.962;2022-08-06T07:20:26;4.85;;;1.58;;
42972;SDS011;28610;51.214;6.962;2022-08-06T07:23:14;6.85;;;1.67;;
42972;SDS011;28610;51.214;6.962;2022-08-06T07:26:00;4.90;;;1.52;;
42972;SDS011;28610;51.214;6.962;2022-08-06T07:28:46;3.88;;;1.55;;
42972;SDS011;28610;51.214;6.962;2022-08-06T07:31:32;3.13;;;1.40;;
42972;SDS011;28610;51.214;6.962;2022-08-06T07:34:18;6.78;;;1.67;;
42972;SDS011;28610;51.214;6.962;2022-08-06T07:37:04;6.60;;;1.60;;
42972;SDS011;28610;51.214;6.962;2022-08-06T07:39:52;4.10;;;1.40;;
42972;SDS011;28610;51.214;6.962;2022-08-06T07:42:40;5.00;;;1.40;;
42972;SDS011;28610;51.214;6.962;2022-08-06T07:45:28;3.83;;;1.27;;
42972;SDS011;28610;51.214;6.962;2022-08-06T07:48:16;2.83;;;1.33;;
42972;SDS011;28610;51.214;6.962;2022-08-06T07:51:06;3.25;;;1.20;;
42972;SDS011;28610;51.214;6.962;2022-08-06T07:53:52;3.53;;;1.40;;
42972;SDS011;28610;51.214;6.962;2022-08-06T08:00:20;6.07;;;1.30;;
42972;SDS011;28610;51.214;6.962;2022-08-06T08:03:07;3.50;;;1.40;;
42972;SDS011;28610;51.214;6.962;2022-08-06T08:06:13;4.40;;;1.23;;
42972;SDS011;28610;51.214;6.962;2022-08-06T08:09:03;2.35;;;1.25;;
42972;SDS011;28610;51.214;6.962;2022-08-06T08:11:51;5.10;;;1.20;;
42972;SDS011;28610;51.214;6.962;2022-08-06T08:14:38;2.75;;;1.20;;
42972;SDS011;28610;51.214;6.962;2022-08-06T08:17:26;2.13;;;1.10;;
42972;SDS011;28610;51.214;6.962;2022-08-06T08:20:11;4.00;;;1.50;;
42972;SDS011;28610;51.214;6.962;2022-08-06T08:22:58;4.68;;;1.30;;
42972;SDS011;28610;51.214;6.962;2022-08-06T08:25:44;5.80;;;1.48;;
42972;SDS011;28610;51.214;6.962;2022-08-06T08:28:29;2.25;;;1.20;;
42972;SDS011;28610;51.214;6.962;2022-08-06T08:31:39;7.22;;;1.88;;
42972;SDS011;28610;51.214;6.962;2022-08-06T08:34:51;4.38;;;1.35;;
42972;SDS011;28610;51.214;6.962;2022-08-06T08:38:08;3.60;;;1.40;;
42972;SDS011;28610;51.214;6.962;2022-08-06T08:41:24;3.33;;;1.23;;
42972;SDS011;28610;51.214;6.962;2022-08-06T08:44:46;5.03;;;1.48;;
42972;SDS011;28610;51.214;6.962;2022-08-06T08:48:03;8.57;;;1.63;;
42972;SDS011;28610;51.214;6.962;2022-08-06T08:51:22;4.65;;;1.40;;
42972;SDS011;28610;51.214;6.962;2022-08-06T08:54:41;3.17;;;1.30;;
42972;SDS011;28610;51.214;6.962;2022-08-06T08:58:01;2.78;;;1.40;;
42972;SDS011;28610;51.214;6.962;2022-08-06T09:01:17;3.90;;;1.30;;
42972;SDS011;28610;51.214;6.962;2022-08-06T09:04:33;2.97;;;1.17;;
42972;SDS011;28610;51.214;6.962;2022-08-06T09:07:51;4.10;;;1.50;;
42972;SDS011;28610;51.214;6.962;2022-08-06T09:11:08;2.67;;;1.40;;
42972;SDS011;28610;51.214;6.962;2022-08-06T09:14:24;3.95;;;1.10;;
42972;SDS011;28610;51.214;6.962;2022-08-06T09:17:40;1.35;;;1.20;;
42972;SDS011;28610;51.214;6.962;2022-08-06T09:20:58;2.75;;;1.35;;
42972;SDS011;28610;51.214;6.962;2022-08-06T09:24:16;2.92;;;1.50;;
